createdAt,value
2017-11-04T00:01:57.798Z,7.60
2017-11-04T00:04:24.714Z,7.60
2017-11-04T00:06:52.629Z,7.60
2017-11-04T00:09:19.548Z,7.60
2017-11-04T00:11:46.877Z,7.50
2017-11-04T00:14:13.826Z,7.50
2017-11-04T00:16:40.709Z,7.50
2017-11-04T00:19:07.618Z,7.50
2017-11-04T00:21:34.921Z,7.70
2017-11-04T00:24:01.847Z,7.70
2017-11-04T00:26:28.786Z,7.60
2017-11-04T00:28:56.122Z,7.70
2017-11-04T00:31:23.006Z,7.70
2017-11-04T00:33:49.930Z,7.70
2017-11-04T00:36:17.215Z,7.70
2017-11-04T00:38:44.126Z,7.70
2017-11-04T00:41:11.438Z,7.80
2017-11-04T00:43:38.410Z,7.80
2017-11-04T00:46:05.303Z,7.80
2017-11-04T00:48:32.300Z,7.80
2017-11-04T00:50:59.256Z,7.80
2017-11-04T00:53:26.142Z,7.80
2017-11-04T00:55:53.054Z,7.70
2017-11-04T00:58:20.404Z,7.70
2017-11-04T01:00:47.316Z,7.70
2017-11-04T01:03:14.293Z,7.60
2017-11-04T01:05:41.590Z,7.40
2017-11-04T01:08:08.475Z,7.40
2017-11-04T01:10:35.438Z,7.50
2017-11-04T01:13:02.318Z,7.40
2017-11-04T01:15:29.214Z,7.40
2017-11-04T01:17:56.169Z,7.40
2017-11-04T01:20:23.125Z,7.50
2017-11-04T01:22:50.446Z,7.30
2017-11-04T01:25:17.344Z,7.30
2017-11-04T01:27:44.658Z,7.20
2017-11-04T01:30:11.587Z,7.30
2017-11-04T01:32:38.469Z,7.30
2017-11-04T01:35:05.384Z,7.30
2017-11-04T01:37:32.262Z,7.30
2017-11-04T01:39:59.581Z,7.30
2017-11-04T01:42:26.470Z,7.30
2017-11-04T01:44:53.794Z,7.30
2017-11-04T01:47:20.692Z,7.30
2017-11-04T01:49:47.581Z,7.30
2017-11-04T01:52:14.512Z,7.30
2017-11-04T01:54:41.414Z,7.30
2017-11-04T01:57:08.697Z,7.30
2017-11-04T01:59:35.609Z,7.30
2017-11-04T02:02:02.894Z,7.30
2017-11-04T02:04:29.809Z,7.20
2017-11-04T02:06:57.125Z,7.10
2017-11-04T02:09:24.039Z,7.10
2017-11-04T02:11:50.917Z,7.10
2017-11-04T02:14:17.859Z,7.10
2017-11-04T02:16:44.761Z,7.10
2017-11-04T02:19:11.682Z,7.00
2017-11-04T02:21:38.965Z,7.00
2017-11-04T02:24:05.899Z,7.00
2017-11-04T02:26:33.239Z,7.00
2017-11-04T02:29:00.534Z,7.10
2017-11-04T02:31:27.463Z,7.10
2017-11-04T02:33:54.351Z,7.20
2017-11-04T02:36:21.266Z,7.20
2017-11-04T02:38:48.161Z,7.30
2017-11-04T02:41:15.092Z,7.20
2017-11-04T02:43:41.990Z,7.20
2017-11-04T02:46:08.911Z,7.30
2017-11-04T02:48:35.815Z,7.20
2017-11-04T02:51:02.708Z,7.20
2017-11-04T02:53:30.058Z,7.20
2017-11-04T02:55:56.998Z,7.30
2017-11-04T02:58:23.901Z,7.20
2017-11-04T03:00:50.791Z,7.20
2017-11-04T03:03:17.710Z,7.20
2017-11-04T03:05:44.598Z,7.20
2017-11-04T03:08:11.935Z,7.10
2017-11-04T03:10:38.886Z,7.10
2017-11-04T03:13:05.787Z,7.20
2017-11-04T03:15:32.774Z,7.20
2017-11-04T03:17:59.671Z,7.10
2017-11-04T03:20:26.557Z,7.20
2017-11-04T03:22:53.478Z,7.10
2017-11-04T03:25:20.399Z,7.20
2017-11-04T03:27:47.289Z,7.20
2017-11-04T03:30:14.210Z,7.30
2017-11-04T03:32:41.111Z,7.30
2017-11-04T03:35:08.443Z,7.30
2017-11-04T03:37:35.335Z,7.30
2017-11-04T03:40:02.227Z,7.30
2017-11-04T03:42:29.189Z,7.30
2017-11-04T03:44:56.109Z,7.40
2017-11-04T03:47:23.010Z,7.30
2017-11-04T03:49:49.928Z,7.20
2017-11-04T03:52:17.283Z,7.00
2017-11-04T03:54:44.175Z,7.00
2017-11-04T03:57:11.111Z,7.00
2017-11-04T03:59:37.993Z,6.90
2017-11-04T04:02:04.920Z,7.00
2017-11-04T04:04:31.915Z,7.00
2017-11-04T04:06:59.238Z,7.20
2017-11-04T04:09:26.137Z,7.20
2017-11-04T04:11:53.026Z,7.20
2017-11-04T04:14:19.998Z,7.10
2017-11-04T04:16:46.887Z,7.10
2017-11-04T04:19:13.778Z,7.20
2017-11-04T04:21:40.701Z,7.20
2017-11-04T04:24:07.607Z,7.20
2017-11-04T04:26:34.922Z,7.30
2017-11-04T04:29:01.837Z,7.30
2017-11-04T04:31:28.832Z,7.30
2017-11-04T04:33:55.717Z,7.40
2017-11-04T04:36:22.665Z,7.50
2017-11-04T04:38:49.537Z,7.60
2017-11-04T04:41:16.432Z,7.70
2017-11-04T04:43:43.738Z,7.70
2017-11-04T04:46:10.758Z,7.70
2017-11-04T04:48:37.667Z,7.70
2017-11-04T04:51:05.023Z,7.80
2017-11-04T04:53:32.329Z,7.80
2017-11-04T04:55:59.225Z,7.80
2017-11-04T04:58:26.135Z,7.90
2017-11-04T05:00:53.009Z,7.90
2017-11-04T05:03:19.913Z,8.00
2017-11-04T05:05:46.829Z,8.00
2017-11-04T05:08:13.715Z,7.90
2017-11-04T05:10:40.687Z,7.90
2017-11-04T05:13:07.642Z,7.90
2017-11-04T05:15:34.946Z,8.00
2017-11-04T05:18:01.946Z,8.00
2017-11-04T05:20:29.294Z,8.00
2017-11-04T05:22:56.203Z,8.00
2017-11-04T05:25:23.090Z,8.10
2017-11-04T05:27:50.398Z,8.20
2017-11-04T05:30:17.285Z,8.20
2017-11-04T05:32:44.196Z,8.20
2017-11-04T05:35:11.181Z,8.20
2017-11-04T05:37:38.093Z,8.20
2017-11-04T05:40:04.975Z,8.30
2017-11-04T05:42:31.899Z,8.30
2017-11-04T05:44:58.786Z,8.40
2017-11-04T05:47:26.118Z,8.30
2017-11-04T05:49:53.006Z,8.30
2017-11-04T05:52:19.946Z,8.20
2017-11-04T05:54:46.834Z,8.20
2017-11-04T05:57:13.717Z,8.30
2017-11-04T05:59:41.025Z,8.30
2017-11-04T06:02:07.906Z,8.30
2017-11-04T06:04:35.220Z,8.30
2017-11-04T06:07:02.129Z,8.30
2017-11-04T06:09:29.051Z,8.30
2017-11-04T06:11:55.997Z,8.20
2017-11-04T06:14:22.946Z,8.20
2017-11-04T06:16:50.298Z,8.40
2017-11-04T06:19:17.654Z,8.20
2017-11-04T06:21:44.542Z,8.20
2017-11-04T06:24:11.425Z,8.20
2017-11-04T06:26:38.359Z,8.30
2017-11-04T06:29:05.241Z,8.30
2017-11-04T06:31:32.187Z,8.30
2017-11-04T06:33:59.538Z,8.40
2017-11-04T06:36:26.485Z,8.40
2017-11-04T06:38:53.375Z,8.40
2017-11-04T06:41:20.292Z,8.30
2017-11-04T06:43:47.628Z,8.30
2017-11-04T06:46:14.549Z,8.30
2017-11-04T06:48:41.439Z,8.30
2017-11-04T06:51:08.760Z,8.30
2017-11-04T06:53:35.667Z,8.30
2017-11-04T06:56:02.594Z,8.40
2017-11-04T06:58:29.961Z,8.60
2017-11-04T07:00:56.868Z,8.60
2017-11-04T07:03:23.826Z,8.60
2017-11-04T07:05:51.141Z,8.60
2017-11-04T07:08:18.038Z,8.60
2017-11-04T07:10:44.943Z,8.70
2017-11-04T07:13:11.874Z,8.70
2017-11-04T07:15:38.827Z,8.80
2017-11-04T07:18:05.787Z,8.90
2017-11-04T07:20:32.702Z,8.90
2017-11-04T07:22:59.603Z,9.10
2017-11-04T07:25:26.933Z,9.20
2017-11-04T07:27:53.901Z,9.20
2017-11-04T07:30:21.246Z,9.30
2017-11-04T07:32:48.181Z,9.30
2017-11-04T07:35:15.085Z,9.30
2017-11-04T07:37:42.095Z,9.40
2017-11-04T07:40:09.022Z,9.30
2017-11-04T07:42:35.914Z,9.30
2017-11-04T07:45:03.287Z,9.40
2017-11-04T07:47:30.234Z,9.40
2017-11-04T07:49:57.121Z,9.50
2017-11-04T07:52:24.228Z,9.50
2017-11-04T07:54:51.106Z,9.50
2017-11-04T07:57:18.049Z,9.60
2017-11-04T07:59:45.026Z,9.70
2017-11-04T08:02:12.386Z,9.70
2017-11-04T08:04:39.269Z,9.70
2017-11-04T08:07:06.317Z,9.80
2017-11-04T08:09:33.327Z,9.90
2017-11-04T08:12:00.746Z,9.90
2017-11-04T08:14:27.638Z,9.90
2017-11-04T08:16:54.978Z,10.10
2017-11-04T08:19:21.891Z,10.10
2017-11-04T08:21:48.782Z,10.10
2017-11-04T08:24:16.096Z,10.30
2017-11-04T08:26:43.021Z,10.30
2017-11-04T08:29:09.925Z,10.30
2017-11-04T08:31:37.326Z,10.40
2017-11-04T08:34:04.221Z,10.40
2017-11-04T08:36:31.109Z,10.50
2017-11-04T08:38:58.035Z,10.50
2017-11-04T08:41:25.315Z,10.50
2017-11-04T08:43:52.251Z,10.50
2017-11-04T08:46:19.151Z,10.60
2017-11-04T08:48:46.048Z,10.60
2017-11-04T08:51:12.953Z,10.60
2017-11-04T08:53:40.301Z,10.70
2017-11-04T08:56:07.230Z,10.60
2017-11-04T08:58:34.114Z,10.70
2017-11-04T09:01:01.395Z,10.80
2017-11-04T09:03:28.385Z,10.80
2017-11-04T09:05:55.341Z,10.80
2017-11-04T09:08:22.286Z,10.80
2017-11-04T09:10:49.233Z,10.80
2017-11-04T09:13:16.123Z,10.80
2017-11-04T09:15:43.035Z,10.90
2017-11-04T09:18:10.394Z,10.90
2017-11-04T09:20:37.746Z,11.00
2017-11-04T09:23:04.635Z,11.00
2017-11-04T09:25:31.674Z,11.00
2017-11-04T09:27:59.737Z,11.10
2017-11-04T09:30:26.737Z,11.20
2017-11-04T09:32:53.740Z,11.30
2017-11-04T09:35:20.729Z,11.30
2017-11-04T09:37:47.663Z,11.30
2017-11-04T09:40:14.979Z,11.50
2017-11-04T09:42:41.954Z,11.50
2017-11-04T09:45:09.235Z,11.50
2017-11-04T09:47:36.131Z,11.50
2017-11-04T09:50:03.058Z,11.60
2017-11-04T09:52:29.946Z,11.60
2017-11-04T09:54:56.826Z,11.60
2017-11-04T09:57:23.818Z,11.50
2017-11-04T09:59:50.779Z,11.60
2017-11-04T10:02:17.670Z,11.70
2017-11-04T10:04:44.666Z,11.80
2017-11-04T10:07:11.952Z,11.70
2017-11-04T10:09:38.857Z,11.70
2017-11-04T10:12:05.754Z,11.70
2017-11-04T10:14:32.666Z,11.80
2017-11-04T10:16:59.955Z,11.60
2017-11-04T10:19:26.885Z,11.60
2017-11-04T10:21:53.769Z,11.60
2017-11-04T10:24:20.666Z,11.40
2017-11-04T10:26:48.045Z,11.40
2017-11-04T10:29:14.942Z,11.40
2017-11-04T10:31:41.838Z,11.40
2017-11-04T10:34:08.754Z,11.40
2017-11-04T10:36:36.041Z,11.40
2017-11-04T10:39:02.924Z,11.40
2017-11-04T10:41:29.838Z,11.40
2017-11-04T10:43:56.742Z,11.40
2017-11-04T10:46:24.088Z,11.50
2017-11-04T10:48:51.030Z,11.50
2017-11-04T10:51:17.973Z,11.60
2017-11-04T10:53:44.925Z,11.60
2017-11-04T10:56:11.830Z,11.80
2017-11-04T10:58:38.813Z,11.90
2017-11-04T11:01:05.726Z,12.00
2017-11-04T11:03:32.638Z,12.20
2017-11-04T11:05:59.530Z,12.30
2017-11-04T11:08:26.509Z,12.40
2017-11-04T11:10:53.445Z,12.40
2017-11-04T11:13:20.402Z,12.50
2017-11-04T11:15:47.291Z,12.50
2017-11-04T11:18:14.185Z,12.40
2017-11-04T11:20:41.125Z,12.30
2017-11-04T11:23:08.019Z,12.20
2017-11-04T11:25:35.025Z,12.20
2017-11-04T11:28:01.965Z,12.30
2017-11-04T11:30:28.885Z,12.50
2017-11-04T11:32:55.866Z,12.70
2017-11-04T11:35:22.806Z,12.80
2017-11-04T11:37:49.757Z,12.80
2017-11-04T11:40:16.699Z,12.80
2017-11-04T11:42:43.610Z,12.90
2017-11-04T11:45:10.494Z,13.00
2017-11-04T11:47:37.407Z,13.00
2017-11-04T11:50:04.392Z,13.10
2017-11-04T11:52:31.310Z,13.10
2017-11-04T11:54:58.219Z,13.10
2017-11-04T11:57:25.147Z,13.20
2017-11-04T11:59:52.437Z,13.20
2017-11-04T12:02:19.326Z,13.20
2017-11-04T12:04:46.269Z,13.30
2017-11-04T12:07:13.209Z,13.20
2017-11-04T12:09:40.162Z,13.20
2017-11-04T12:12:07.106Z,13.30
2017-11-04T12:14:34.047Z,13.40
2017-11-04T12:17:01.002Z,13.40
2017-11-04T12:19:27.994Z,13.50
2017-11-04T12:21:54.882Z,13.60
2017-11-04T12:24:21.883Z,13.50
2017-11-04T12:26:48.885Z,13.70
2017-11-04T12:29:15.879Z,13.80
2017-11-04T12:31:42.782Z,13.70
2017-11-04T12:34:09.722Z,13.60
2017-11-04T12:36:36.685Z,13.70
2017-11-04T12:39:03.966Z,13.10
2017-11-04T12:41:30.877Z,13.10
2017-11-04T12:43:58.212Z,13.10
2017-11-04T12:46:25.178Z,13.10
2017-11-04T12:48:52.098Z,13.00
2017-11-04T12:51:19.066Z,13.00
2017-11-04T12:53:46.016Z,13.10
2017-11-04T12:56:12.910Z,13.10
2017-11-04T12:58:39.822Z,13.00
2017-11-04T13:01:07.110Z,13.10
2017-11-04T13:03:34.107Z,13.10
2017-11-04T13:06:01.058Z,13.20
2017-11-04T13:08:27.948Z,13.20
2017-11-04T13:10:54.990Z,13.30
2017-11-04T13:13:21.871Z,13.30
2017-11-04T13:15:48.833Z,13.30
2017-11-04T13:18:15.786Z,13.30
2017-11-04T13:20:42.729Z,13.30
2017-11-04T13:23:09.646Z,13.20
2017-11-04T13:25:36.531Z,13.10
2017-11-04T13:28:03.845Z,13.20
2017-11-04T13:30:30.766Z,13.20
2017-11-04T13:32:57.769Z,13.20
2017-11-04T13:35:24.725Z,13.20
2017-11-04T13:37:51.669Z,13.20
2017-11-04T13:40:18.554Z,13.30
2017-11-04T13:42:45.445Z,13.30
2017-11-04T13:45:12.379Z,13.30
2017-11-04T13:47:39.354Z,13.40
2017-11-04T13:50:06.242Z,13.50
2017-11-04T13:52:33.164Z,13.60
2017-11-04T13:55:00.497Z,13.80
2017-11-04T13:57:27.390Z,13.80
2017-11-04T13:59:54.298Z,13.80
2017-11-04T14:02:21.589Z,13.70
2017-11-04T14:04:48.597Z,13.70
2017-11-04T14:07:15.478Z,13.60
2017-11-04T14:09:42.382Z,13.60
2017-11-04T14:12:09.325Z,13.60
2017-11-04T14:14:36.277Z,13.50
2017-11-04T14:17:03.157Z,13.60
2017-11-04T14:19:30.051Z,13.60
2017-11-04T14:21:57.008Z,13.70
2017-11-04T14:24:23.937Z,13.60
2017-11-04T14:26:50.846Z,13.60
2017-11-04T14:29:17.742Z,13.60
2017-11-04T14:31:44.689Z,13.50
2017-11-04T14:34:11.585Z,13.40
2017-11-04T14:36:38.475Z,13.40
2017-11-04T14:39:05.438Z,13.50
2017-11-04T14:41:32.781Z,13.60
2017-11-04T14:43:59.734Z,13.60
2017-11-04T14:46:26.684Z,13.60
2017-11-04T14:48:53.576Z,13.80
2017-11-04T14:51:20.504Z,13.90
2017-11-04T14:53:47.392Z,13.90
2017-11-04T14:56:14.361Z,13.90
2017-11-04T14:58:41.315Z,13.90
2017-11-04T15:01:08.634Z,13.80
2017-11-04T15:03:35.621Z,13.80
2017-11-04T15:06:02.934Z,13.60
2017-11-04T15:08:29.826Z,13.60
2017-11-04T15:10:57.161Z,13.40
2017-11-04T15:13:24.117Z,13.40
2017-11-04T15:15:51.019Z,13.40
2017-11-04T15:18:18.010Z,13.30
2017-11-04T15:20:44.954Z,13.30
2017-11-04T15:23:11.842Z,13.20
2017-11-04T15:25:38.770Z,13.10
2017-11-04T15:28:06.105Z,13.10
2017-11-04T15:30:33.440Z,13.10
2017-11-04T15:33:00.346Z,13.10
2017-11-04T15:35:27.390Z,13.00
2017-11-04T15:37:54.292Z,12.90
2017-11-04T15:40:21.242Z,13.00
2017-11-04T15:42:48.138Z,13.00
2017-11-04T15:45:15.018Z,13.10
2017-11-04T15:47:41.985Z,13.00
2017-11-04T15:50:09.329Z,13.00
2017-11-04T15:52:36.221Z,13.00
2017-11-04T15:55:03.129Z,12.90
2017-11-04T15:57:30.481Z,12.90
2017-11-04T15:59:57.401Z,12.90
2017-11-04T16:02:24.374Z,12.90
2017-11-04T16:04:51.262Z,12.80
2017-11-04T16:07:18.256Z,12.70
2017-11-04T16:09:45.210Z,12.60
2017-11-04T16:12:12.101Z,12.60
2017-11-04T16:14:39.102Z,12.50
2017-11-04T16:17:06.002Z,12.60
2017-11-04T16:19:32.918Z,12.50
2017-11-04T16:22:00.202Z,12.40
2017-11-04T16:24:27.114Z,12.40
2017-11-04T16:26:54.429Z,12.20
2017-11-04T16:29:21.394Z,12.20
2017-11-04T16:31:48.698Z,12.10
2017-11-04T16:34:15.597Z,12.10
2017-11-04T16:36:42.542Z,12.20
2017-11-04T16:39:09.431Z,12.20
2017-11-04T16:41:36.434Z,12.10
2017-11-04T16:44:03.378Z,12.10
2017-11-04T16:46:30.333Z,12.10
2017-11-04T16:48:57.222Z,12.00
2017-11-04T16:51:24.129Z,11.80
2017-11-04T16:53:51.475Z,11.70
2017-11-04T16:56:18.366Z,11.70
2017-11-04T16:58:45.354Z,11.60
2017-11-04T17:01:12.326Z,11.60
2017-11-04T17:03:39.606Z,11.60
2017-11-04T17:06:06.533Z,11.60
2017-11-04T17:08:33.878Z,11.60
2017-11-04T17:11:01.210Z,11.60
2017-11-04T17:13:28.102Z,11.60
2017-11-04T17:15:55.162Z,11.70
2017-11-04T17:18:22.100Z,11.60
2017-11-04T17:20:49.084Z,11.60
2017-11-04T17:23:16.041Z,11.60
2017-11-04T17:25:43.070Z,11.50
2017-11-04T17:28:10.016Z,11.50
2017-11-04T17:30:36.986Z,11.40
2017-11-04T17:33:03.913Z,11.30
2017-11-04T17:35:30.937Z,11.30
2017-11-04T17:37:57.867Z,11.30
2017-11-04T17:40:25.229Z,11.20
2017-11-04T17:42:52.575Z,11.20
2017-11-04T17:45:19.667Z,11.20
2017-11-04T17:47:46.611Z,11.10
2017-11-04T17:50:13.553Z,11.00
2017-11-04T17:52:40.905Z,10.90
2017-11-04T17:55:08.244Z,10.80
2017-11-04T17:57:35.163Z,10.80
2017-11-04T18:00:02.152Z,10.80
2017-11-04T18:02:29.497Z,10.90
2017-11-04T18:04:56.518Z,10.90
2017-11-04T18:07:23.508Z,10.90
2017-11-04T18:09:50.822Z,11.00
2017-11-04T18:12:17.830Z,11.00
2017-11-04T18:14:44.765Z,10.90
2017-11-04T18:17:12.127Z,10.90
2017-11-04T18:19:39.486Z,10.90
2017-11-04T18:22:06.461Z,10.90
2017-11-04T18:24:33.382Z,10.90
2017-11-04T18:27:00.375Z,10.90
2017-11-04T18:29:27.295Z,10.80
2017-11-04T18:31:54.205Z,10.80
2017-11-04T18:34:21.100Z,10.80
2017-11-04T18:36:48.040Z,10.80
2017-11-04T18:39:15.370Z,10.80
2017-11-04T18:41:42.267Z,10.80
2017-11-04T18:44:09.162Z,10.80
2017-11-04T18:46:36.102Z,10.80
2017-11-04T18:49:03.045Z,10.80
2017-11-04T18:51:29.962Z,10.90
2017-11-04T18:53:56.943Z,11.00
2017-11-04T18:56:23.889Z,10.90
2017-11-04T18:58:50.802Z,10.90
2017-11-04T19:01:17.779Z,10.80
2017-11-04T19:03:44.699Z,10.80
2017-11-04T19:06:11.587Z,10.80
2017-11-04T19:08:38.911Z,10.90
2017-11-04T19:11:05.821Z,10.90
2017-11-04T19:13:32.759Z,10.80
2017-11-04T19:15:59.641Z,10.70
2017-11-04T19:18:26.579Z,10.80
2017-11-04T19:20:53.475Z,10.80
2017-11-04T19:23:20.837Z,10.70
2017-11-04T19:25:47.782Z,10.70
2017-11-04T19:28:15.090Z,10.70
2017-11-04T19:30:41.999Z,10.70
2017-11-04T19:33:08.922Z,10.60
2017-11-04T19:35:36.262Z,10.60
2017-11-04T19:38:03.186Z,10.60
2017-11-04T19:40:30.102Z,10.60
2017-11-04T19:42:57.018Z,10.60
2017-11-04T19:45:24.361Z,10.70
2017-11-04T19:47:51.646Z,10.70
2017-11-04T19:50:18.565Z,10.70
2017-11-04T19:52:45.866Z,10.90
2017-11-04T19:55:12.756Z,10.90
2017-11-04T19:57:39.682Z,10.80
2017-11-04T20:00:06.572Z,10.70
2017-11-04T20:02:33.564Z,10.70
2017-11-04T20:05:00.495Z,10.70
2017-11-04T20:07:27.481Z,10.70
2017-11-04T20:09:54.365Z,10.70
2017-11-04T20:12:21.308Z,10.60
2017-11-04T20:14:48.239Z,10.50
2017-11-04T20:17:15.518Z,10.60
2017-11-04T20:19:42.409Z,10.60
2017-11-04T20:22:09.411Z,10.60
2017-11-04T20:24:36.294Z,10.60
2017-11-04T20:27:03.275Z,10.70
2017-11-04T20:29:30.582Z,10.50
2017-11-04T20:31:57.520Z,10.50
2017-11-04T20:34:24.439Z,10.50
2017-11-04T20:36:51.498Z,10.70
2017-11-04T20:39:18.511Z,10.60
2017-11-04T20:41:45.449Z,10.60
2017-11-04T20:44:12.406Z,10.40
2017-11-04T20:46:39.727Z,10.50
2017-11-04T20:49:06.707Z,10.50
2017-11-04T20:51:34.026Z,10.40
2017-11-04T20:54:00.917Z,10.40
2017-11-04T20:56:28.226Z,10.20
2017-11-04T20:58:55.117Z,10.20
2017-11-04T21:01:22.466Z,10.20
2017-11-04T21:03:49.761Z,10.30
2017-11-04T21:06:16.654Z,10.30
2017-11-04T21:08:43.606Z,10.20
2017-11-04T21:11:10.502Z,10.00
2017-11-04T21:13:37.385Z,10.00
2017-11-04T21:16:04.306Z,10.00
2017-11-04T21:18:31.229Z,10.00
2017-11-04T21:20:58.114Z,9.90
2017-11-04T21:23:25.097Z,9.80
2017-11-04T21:25:52.434Z,9.70
2017-11-04T21:28:19.385Z,9.70
2017-11-04T21:30:46.337Z,9.70
2017-11-04T21:33:13.680Z,9.70
2017-11-04T21:35:40.621Z,9.70
2017-11-04T21:38:07.501Z,9.50
2017-11-04T21:40:34.462Z,9.50
2017-11-04T21:43:01.397Z,9.40
2017-11-04T21:45:28.285Z,9.50
2017-11-04T21:47:55.178Z,9.50
2017-11-04T21:50:22.213Z,9.40
2017-11-04T21:52:49.515Z,9.50
2017-11-04T21:55:16.442Z,9.50
2017-11-04T21:57:43.349Z,9.50
2017-11-04T22:00:10.286Z,9.40
2017-11-04T22:02:37.186Z,9.50
2017-11-04T22:05:04.105Z,9.50
2017-11-04T22:07:31.446Z,9.50
2017-11-04T22:09:58.356Z,9.50
2017-11-04T22:12:25.249Z,9.50
2017-11-04T22:14:52.561Z,9.50
2017-11-04T22:17:19.450Z,9.50
2017-11-04T22:19:46.745Z,9.60
2017-11-04T22:22:13.645Z,9.60
2017-11-04T22:24:40.933Z,9.70
2017-11-04T22:27:07.848Z,9.70
2017-11-04T22:29:35.167Z,9.70
2017-11-04T22:32:02.161Z,9.70
2017-11-04T22:34:29.481Z,9.60
2017-11-04T22:36:56.435Z,9.60
2017-11-04T22:39:23.361Z,9.50
2017-11-04T22:41:50.335Z,9.50
2017-11-04T22:44:17.614Z,9.70
2017-11-04T22:46:44.532Z,9.70
2017-11-04T22:49:11.482Z,9.60
2017-11-04T22:51:38.847Z,9.50
2017-11-04T22:54:06.187Z,9.50
2017-11-04T22:56:33.113Z,9.60
2017-11-04T22:59:00.038Z,9.50
2017-11-04T23:01:27.025Z,9.40
2017-11-04T23:03:53.940Z,9.40
2017-11-04T23:06:20.835Z,9.20
2017-11-04T23:08:48.152Z,9.20
2017-11-04T23:11:15.094Z,9.20
2017-11-04T23:13:41.986Z,9.30
2017-11-04T23:16:09.265Z,9.50
2017-11-04T23:18:36.177Z,9.50
2017-11-04T23:21:03.459Z,9.30
2017-11-04T23:23:30.573Z,9.20
2017-11-04T23:25:57.465Z,9.20
2017-11-04T23:28:24.357Z,9.20
2017-11-04T23:30:51.304Z,9.20
2017-11-04T23:33:18.265Z,9.20
2017-11-04T23:35:45.614Z,9.40
2017-11-04T23:38:12.601Z,9.40
2017-11-04T23:40:39.490Z,9.40
2017-11-04T23:43:06.446Z,9.30
2017-11-04T23:45:33.358Z,9.30
2017-11-04T23:48:00.354Z,9.30
2017-11-04T23:50:27.666Z,9.20
2017-11-04T23:52:54.566Z,9.20
2017-11-04T23:55:21.893Z,9.20
2017-11-04T23:57:48.785Z,9.20
